Alexandre Lambert

Olheiro - RC Lens
1 Out 2028
Domingo
Processo

Personalidade

Adaptabilidade (9) Ambição (18) Controvérsia (6) Lealdade (14) Pressão (9) Profissionalismo (19) Espírito Esportivo (20) Temperamento (16)

Perfil

Estilo de Treinamento Democrático
Licença Continental Pro
Determinação 11
Gestão de Pessoas 7
Motivação 14
Disciplina 7
Satisfação no Trabalho
100%
Fadiga
0%
Função Olheiro
Salário 90.4K p/s
Contrato 14.03.2029

Desempenho

Comportamento Bom
Eficácia do Treinamento
54%
Desenvolvimento do Jogador
55%
Prevenção de Lesões
30%
Implementação Tática
75%

Eventos Recentes

Participou de uma reunião de recrutamento agora
Participou de uma reunião de recrutamento 7d atrás
Participou de uma reunião de recrutamento 7d atrás
Recomendou um alvo de transferência 7d atrás
Participou de uma reunião de recrutamento 14d atrás
Participou de uma reunião de recrutamento 14d atrás
Recomendou um alvo de transferência 14d atrás
Recomendou um alvo de transferência 21d atrás

Monitorando agora

116
Jogador Clube Status Habilidade Confiança Observado Última observação Último voto
Adama Soumaoro Paris FC Perdido 121 / 122 86% 1 07.08.2028 Aprovar
Loïc Badiashile US Creteil Perdido 113 / 117 86% 1 26.06.2028 -
Jason Witsel PSV Ativo 126 / 129 40% 1 31.05.2028 -
Luca Koleosho Paris FC Rejeitado 140 / 141 86% 1 31.01.2028 Rejeitar
Amine Boukamir Charleroi Ativo 105 / 108 40% 1 31.12.2027 -
Ayden Heaven Portsmouth Ativo 144 / 148 40% 1 31.12.2027 -
Mathys De Carvalho Olympique Lyonnais Ativo 116 / 118 86% 1 09.08.2027 Aprovar
Roberto Fernández Braga Ativo 142 / 143 40% 10 29.05.2027 -
Jarrad Branthwaite Everton Ativo 154 / 153 40% 4 29.05.2027 -
Florentino Luís Ipswich Town Ativo 143 / 141 40% 3 29.05.2027 -
Tammy Abraham Aston Villa Ativo 140 / 143 40% 3 29.05.2027 -
Mats Wieffer Brighton Ativo 148 / 150 40% 1 29.05.2027 -
Luis Suárez Sporting CP Ativo 157 / 158 40% 3 27.05.2027 -
Kevin Schade Chelsea Ativo 150 / 152 40% 4 27.05.2027 -
Manu Koné AS Roma Ativo 164 / 166 40% 2 26.05.2027 -
Boubacar Kamara Aston Villa Ativo 167 / 166 40% 4 26.05.2027 -
Quinten Timber Crystal Palace Ativo 149 / 155 40% 2 26.05.2027 -
Brooke Norton-Cuffy Hull City Ativo 138 / 139 40% 2 25.05.2027 -
Yeremy Pino Crystal Palace Ativo 153 / 154 40% 2 25.05.2027 -
Kevin Fulham Ativo 153 / 153 40% 2 25.05.2027 -
Brian Brobbey Sunderland Ativo 142 / 138 40% 1 23.05.2027 -
Jake O'Brien Everton Ativo 147 / 146 40% 1 21.05.2027 -
Esteban Lepaul Stade Rennais Ativo 140 / 136 40% 5 20.05.2027 -
Georginio Rutter Brighton Ativo 148 / 147 40% 5 20.05.2027 -
Amadou Onana Aston Villa Ativo 156 / 154 40% 7 19.05.2027 -
Diego Coppola Paris FC Ativo 143 / 145 40% 2 19.05.2027 -
Curtis Jones Inter Ativo 156 / 154 40% 1 19.05.2027 -
Gonçalo Ramos AC Milan Ativo 159 / 158 40% 3 17.05.2027 -
Emanuel Emegha Chelsea Ativo 143 / 145 40% 1 15.05.2027 -
Tino Livramento Newcastle United Ativo 154 / 155 40% 3 13.05.2027 -
Dominic Solanke Tottenham Ativo 147 / 148 40% 3 12.05.2027 -
Nicolas Jackson Aston Villa Ativo 147 / 144 40% 2 12.05.2027 -
Yehor Yarmoliuk Brentford Ativo 146 / 151 40% 4 11.05.2027 -
Alex Scott Bournemouth Ativo 147 / 152 40% 2 11.05.2027 -
Pau Víctor Braga Ativo 143 / 136 40% 6 09.05.2027 -
Adam Wharton Crystal Palace Ativo 154 / 154 40% 3 08.05.2027 -
Jacob Greaves Ipswich Town Ativo 137 / 138 40% 2 07.05.2027 -
Nathan Collins Brentford Ativo 146 / 142 40% 2 07.05.2027 -
Lewis Hall Newcastle United Ativo 147 / 149 40% 1 07.05.2027 -
Thiago Brentford Ativo 146 / 144 40% 7 05.05.2027 -
Jørgen Strand Larsen Brighton Ativo 147 / 143 40% 3 04.05.2027 -
Max Johnston Derby County Ativo 128 / 128 40% 2 02.05.2027 -
Giacomo Raspadori Atalanta Ativo 147 / 145 40% 2 02.05.2027 -
Alex Robertson Cardiff City Ativo 125 / 119 40% 1 02.05.2027 -
Ilyas Ansah Hull City Ativo 130 / 132 40% 1 02.05.2027 -
Nicolò Zaniolo Udinese Ativo 142 / 144 40% 3 28.04.2027 -
Tiago Santos LOSC Lille Ativo 142 / 139 40% 4 27.04.2027 -
Ryan Sessegnon Fulham Ativo 146 / 144 40% 1 27.04.2027 -
Gianluca Scamacca Atalanta Ativo 151 / 147 40% 1 26.04.2027 -
James Garner Everton Ativo 150 / 146 40% 2 25.04.2027 -
Taty Castellanos West Ham United Ativo 147 / 144 40% 2 21.04.2027 -
Lucas Da Cunha Como Ativo 144 / 146 40% 1 18.04.2027 -
Aaron Hickey Brentford Ativo 145 / 146 40% 1 18.04.2027 -
Vanderson Monaco Ativo 141 / 142 40% 3 17.04.2027 -
Chemsdine Talbi Sunderland Ativo 142 / 143 40% 1 17.04.2027 -
Hákon Arnar Haraldsson LOSC Lille Ativo 152 / 146 40% 1 17.04.2027 -
Carlos Forbs Club Brugge Ativo 133 / 137 40% 1 17.04.2027 -
Ilay Camara Anderlecht Ativo 131 / 132 40% 2 16.04.2027 -
Xavi Simons Tottenham Ativo 160 / 160 40% 1 16.04.2027 -
Juan Bezerra Zamalek Ativo 122 / 124 40% 2 10.04.2027 -
Mohamed-Ali Cho Hull City Ativo 137 / 133 40% 1 10.04.2027 -
Nuno Tavares Lazio Ativo 144 / 144 40% 1 09.04.2027 -
Morgan Rogers Chelsea Ativo 162 / 163 40% 2 07.04.2027 -
Ngal'Ayel Mukau LOSC Lille Ativo 139 / 143 40% 4 05.04.2027 -
Óscar Mingueza Crystal Palace Ativo 154 / 145 40% 4 05.04.2027 -
Bradley Locko Stade Brestois Ativo 134 / 136 40% 1 05.04.2027 -
Igor Paixão Olympique de Marseille Ativo 148 / 144 40% 2 04.04.2027 Mais informações
Ousmane Diomande Nottingham Forest Ativo 151 / 152 40% 2 02.04.2027 -
Khéphren Thuram Juventus Ativo 160 / 156 40% 1 30.03.2027 -
Jan Paul van Hecke Tottenham Ativo 160 / 155 40% 1 26.03.2027 -
Lamine Camara Monaco Ativo 140 / 141 40% 1 23.03.2027 -
Levi Colwill Chelsea Ativo 160 / 158 40% 1 23.03.2027 -
Christian Pulisic AC Milan Ativo 166 / 157 40% 2 21.03.2027 -
João Pedro Chelsea Ativo 154 / 149 40% 1 19.03.2027 -
Habib Diarra Sunderland Ativo 139 / 140 40% 1 18.03.2027 -
Tyler Morton Olympique Lyonnais Ativo 147 / 148 40% 2 16.03.2027 -
Pedro Porro Tottenham Ativo 148 / 150 40% 1 13.03.2027 -
Savinho Tottenham Ativo 155 / 162 40% 1 11.03.2027 -
Evan N'Dicka AS Roma Ativo 158 / 159 40% 1 10.03.2027 -
Joaquin Seys Club Brugge Ativo 130 / 134 40% 1 08.03.2027 -
Ismaïla Sarr Crystal Palace Ativo 151 / 147 40% 2 03.03.2027 -
André Wolverhampton Ativo 141 / 141 40% 1 03.01.2027 -
Héctor Holguín Morelia Ativo 112 / 107 40% 3 28.12.2026 -
Fran Vieites Walsall Ativo 118 / 114 40% 1 28.12.2026 -
Stefan Bajić AC Ajaccio Ativo 105 / 107 40% 1 27.12.2026 -
Robin Roefs Sunderland Ativo 143 / 144 40% 4 26.12.2026 -
Jonathan Fischer FC Metz Ativo 131 / 129 40% 4 26.12.2026 -
Yousef Salech Cardiff City Ativo 129 / 122 40% 1 26.12.2026 -
Nicolò Tresoldi Club Brugge Ativo 132 / 130 40% 1 21.12.2026 -
Chukwubuikem Ikwuemesi OH Leuven Ativo 122 / 117 40% 2 19.12.2026 -
Yehvann Diouf OGC Nice Ativo 142 / 135 40% 3 19.12.2026 -
Patrick Sequeira Casa Pia Ativo 123 / 125 40% 1 18.12.2026 -
Grégoire Coudert Burnley Ativo 130 / 130 40% 5 17.12.2026 -
Anthony Patterson Wrexham Ativo 129 / 126 40% 2 17.12.2026 -
Zion Suzuki Aston Villa Ativo 139 / 145 40% 4 15.12.2026 -
Joseph Leclercq Tottenham Ativo 153 / 152 40% 3 15.12.2026 -
Brent Gabriel Zulte Waregem Ativo 116 / 117 40% 4 13.12.2026 -
Ryotaro Araki Sint-Truiden Ativo 119 / 116 40% 1 13.12.2026 -
Radek Vítek Middlesbrough Ativo 136 / 138 40% 6 09.12.2026 -
Mads Hermansen West Ham United Ativo 136 / 139 40% 1 05.12.2026 -
Nicolás Sumavil Platense Ativo 118 / 116 40% 2 02.12.2026 -
Berke Özer LOSC Lille Ativo 134 / 135 40% 2 01.12.2026 -
Filip Marschall Stevenage Ativo 109 / 110 40% 1 27.11.2026 -
Rodrigo Muniz Fulham Ativo 136 / 141 40% 1 26.11.2026 -
James Trafford Leeds United Ativo 140 / 145 40% 6 20.11.2026 -
Raúl Rangel Braga Ativo 134 / 130 40% 3 17.11.2026 -
Cody Gakpo Liverpool Ativo 161 / 155 40% 1 14.11.2026 -
Mile Svilar AS Roma Ativo 159 / 155 40% 1 13.11.2026 -
Matvey Safonov Paris Saint-Germain Ativo 150 / 157 40% 4 06.11.2026 -
Murphy Cooper Plymouth Argyle Ativo 111 / 115 40% 1 05.11.2026 -
Nathan Trott Cardiff City Ativo 122 / 120 40% 1 03.11.2026 -
Federico Losas Chacarita Juniors Ativo 112 / 110 40% 1 06.10.2026 -
Patrick Schulte Columbus Crew Ativo 123 / 121 40% 1 04.10.2026 -
Caoimhin Kelleher Brentford Ativo 151 / 146 40% 1 15.09.2026 -
Andreas Jungdal Westerlo Ativo 117 / 123 40% 1 15.09.2026 -
Giorgi Mamardashvili Liverpool Ativo 154 / 156 40% 1 12.09.2026 -